createdAt,value
2022-11-29T00:00:12.254Z,96231.78
2022-11-29T00:02:40.220Z,96227.34
2022-11-29T00:05:08.722Z,96221.09
2022-11-29T00:07:36.504Z,96228.78
2022-11-29T00:10:05.138Z,96229.41
2022-11-29T00:12:34.299Z,96220.81
2022-11-29T00:15:02.104Z,96222.53
2022-11-29T00:17:29.833Z,96222.00
2022-11-29T00:19:57.579Z,96221.84
2022-11-29T00:22:25.521Z,96226.59
2022-11-29T00:24:53.428Z,96215.78
2022-11-29T00:27:21.172Z,96224.13
2022-11-29T00:29:50.673Z,96218.25
2022-11-29T00:32:18.514Z,96215.56
2022-11-29T00:34:46.370Z,96215.56
2022-11-29T00:37:14.533Z,96199.09
2022-11-29T00:39:42.257Z,96221.69
2022-11-29T00:42:10.022Z,96205.22
2022-11-29T00:44:37.765Z,96215.13
2022-11-29T00:47:06.855Z,96219.19
2022-11-29T00:49:34.767Z,96214.38
2022-11-29T00:52:02.490Z,96215.03
2022-11-29T00:54:30.253Z,96217.25
2022-11-29T00:56:58.160Z,96218.88
2022-11-29T00:59:26.000Z,96211.41
2022-11-29T01:01:53.879Z,96221.00
2022-11-29T01:04:23.332Z,96218.41
2022-11-29T01:06:52.056Z,96219.44
2022-11-29T01:09:20.680Z,96219.88
2022-11-29T01:11:50.596Z,96218.25
2022-11-29T01:14:18.301Z,96216.19
2022-11-29T01:16:46.256Z,96221.94
2022-11-29T01:19:14.089Z,96225.84
2022-11-29T01:21:43.234Z,96223.63
2022-11-29T01:24:11.110Z,96229.75
2022-11-29T01:26:39.150Z,96222.78
2022-11-29T01:31:52.428Z,96219.66
2022-11-29T01:34:22.062Z,96210.09
2022-11-29T01:36:51.385Z,96209.22
2022-11-29T01:39:19.237Z,96210.94
2022-11-29T01:41:47.050Z,96211.34
2022-11-29T01:44:48.242Z,96210.50
2022-11-29T01:47:17.530Z,96211.41
2022-11-29T01:49:48.514Z,96210.38
2022-11-29T01:52:20.695Z,96211.00
2022-11-29T01:54:54.467Z,96208.97
2022-11-29T02:00:12.387Z,96207.91
2022-11-29T02:02:43.807Z,96209.56
2022-11-29T02:05:15.050Z,96206.91
2022-11-29T02:07:47.164Z,96198.97
2022-11-29T02:10:16.494Z,96215.69
2022-11-29T02:12:55.240Z,96210.53
2022-11-29T02:15:32.109Z,96211.16
2022-11-29T02:18:05.968Z,96194.78
2022-11-29T02:20:55.037Z,96210.13
2022-11-29T02:23:44.810Z,96207.66
2022-11-29T02:26:25.494Z,96196.03
2022-11-29T02:29:19.349Z,96196.59
2022-11-29T02:32:10.190Z,96205.38
2022-11-29T02:34:57.821Z,96205.59
2022-11-29T02:37:51.342Z,96196.38
2022-11-29T02:40:35.715Z,96205.59
2022-11-29T02:43:25.096Z,96202.31
2022-11-29T02:46:18.621Z,96194.16
2022-11-29T02:49:02.013Z,96199.34
2022-11-29T02:51:41.181Z,96195.94
2022-11-29T02:54:16.696Z,96202.06
2022-11-29T02:56:49.300Z,96198.97
2022-11-29T02:59:30.744Z,96202.47
2022-11-29T03:02:06.535Z,96200.00
2022-11-29T03:04:41.728Z,96215.91
2022-11-29T03:07:22.140Z,96205.50
2022-11-29T03:10:00.091Z,96189.28
2022-11-29T03:12:37.435Z,96204.09
2022-11-29T03:15:19.702Z,96208.03
2022-11-29T03:17:56.390Z,96211.03
2022-11-29T03:20:35.847Z,96209.63
2022-11-29T03:23:15.943Z,96215.16
2022-11-29T03:25:48.353Z,96221.06
2022-11-29T03:28:20.523Z,96217.38
2022-11-29T03:31:00.883Z,96222.50
2022-11-29T03:33:37.098Z,96230.47
2022-11-29T03:36:10.510Z,96223.94
2022-11-29T03:38:43.501Z,96225.19
2022-11-29T03:41:22.063Z,96210.72
2022-11-29T03:43:58.412Z,96226.13
2022-11-29T03:46:34.339Z,96225.97
2022-11-29T03:49:05.567Z,96217.16
2022-11-29T03:51:47.954Z,96221.69
2022-11-29T03:54:20.060Z,96234.09
2022-11-29T03:56:48.582Z,96229.22
2022-11-29T03:59:30.047Z,96220.66
2022-11-29T04:02:36.047Z,96240.69
2022-11-29T04:05:48.915Z,96241.72
2022-11-29T04:08:47.431Z,96233.16
2022-11-29T04:11:54.770Z,96235.78
2022-11-29T04:15:10.444Z,96223.13
2022-11-29T04:18:03.158Z,96214.56
2022-11-29T04:21:01.946Z,96228.59
2022-11-29T04:23:58.449Z,96230.63
2022-11-29T04:27:03.989Z,96224.91
2022-11-29T04:29:55.131Z,96225.72
2022-11-29T04:33:05.017Z,96223.13
2022-11-29T04:35:43.870Z,96222.69
2022-11-29T04:38:42.159Z,96229.63
2022-11-29T04:41:26.355Z,96236.56
2022-11-29T04:44:32.475Z,96231.63
2022-11-29T04:47:38.787Z,96231.88
2022-11-29T04:50:20.003Z,96233.13
2022-11-29T04:53:07.945Z,96232.28
2022-11-29T04:55:45.804Z,96235.81
2022-11-29T04:58:22.959Z,96221.50
2022-11-29T05:01:00.705Z,96238.50
2022-11-29T05:03:38.897Z,96239.69
2022-11-29T05:06:20.355Z,96244.84
2022-11-29T05:08:58.171Z,96243.75
2022-11-29T05:11:39.434Z,96244.59
2022-11-29T05:14:17.517Z,96248.66
2022-11-29T05:16:54.943Z,96246.84
2022-11-29T05:19:44.719Z,96250.97
2022-11-29T05:22:25.922Z,96245.63
2022-11-29T05:25:02.343Z,96242.59
2022-11-29T05:27:44.784Z,96249.13
2022-11-29T05:30:15.996Z,96259.47
2022-11-29T05:32:54.634Z,96250.75
2022-11-29T05:35:54.620Z,96251.78
2022-11-29T05:38:40.126Z,96269.09
2022-11-29T05:41:23.587Z,96250.75
2022-11-29T05:44:02.371Z,96252.81
2022-11-29T05:46:37.022Z,96271.97
2022-11-29T05:49:16.660Z,96264.38
2022-11-29T05:51:57.132Z,96263.16
2022-11-29T05:54:30.955Z,96268.94
2022-11-29T05:57:14.504Z,96269.88
2022-11-29T05:59:43.798Z,96271.84
2022-11-29T06:02:25.303Z,96264.94
2022-11-29T06:05:04.011Z,96270.59
2022-11-29T06:07:41.668Z,96278.78
2022-11-29T06:10:14.020Z,96267.22
2022-11-29T06:12:44.774Z,96272.72
2022-11-29T06:15:56.616Z,96289.72
2022-11-29T06:18:48.615Z,96288.94
2022-11-29T06:21:28.667Z,96290.56
2022-11-29T06:24:34.509Z,96274.81
2022-11-29T06:27:24.120Z,96282.31
2022-11-29T06:29:58.925Z,96295.56
2022-11-29T06:32:36.869Z,96274.78
2022-11-29T06:35:12.372Z,96292.25
2022-11-29T06:37:43.778Z,96283.69
2022-11-29T06:40:17.340Z,96288.56
2022-11-29T06:42:45.358Z,96293.28
2022-11-29T06:45:14.956Z,96285.13
2022-11-29T06:47:47.761Z,96267.88
2022-11-29T06:50:30.537Z,96284.75
2022-11-29T06:53:08.724Z,96303.34
2022-11-29T06:55:49.367Z,96290.28
2022-11-29T06:58:35.848Z,96284.38
2022-11-29T07:01:12.667Z,96298.78
2022-11-29T07:03:54.010Z,96300.84
2022-11-29T07:06:25.164Z,96306.09
2022-11-29T07:09:01.085Z,96311.19
2022-11-29T07:11:31.161Z,96314.72
2022-11-29T07:13:59.523Z,96314.31
2022-11-29T07:16:31.768Z,96235.31
2022-11-29T07:19:10.649Z,96327.00
2022-11-29T07:21:52.872Z,96322.44
2022-11-29T07:24:29.977Z,96331.88
2022-11-29T07:27:09.390Z,96322.88
2022-11-29T07:29:46.373Z,96333.31
2022-11-29T07:32:22.042Z,96326.28
2022-11-29T07:35:00.157Z,96323.63
2022-11-29T07:37:36.037Z,96322.84
2022-11-29T07:40:12.602Z,96326.22
2022-11-29T07:42:56.104Z,96322.38
2022-11-29T07:45:28.652Z,96322.75
2022-11-29T07:47:56.950Z,96326.41
2022-11-29T07:50:26.010Z,96322.84
2022-11-29T07:52:54.925Z,96311.16
2022-11-29T07:55:25.179Z,96331.28
2022-11-29T07:57:54.398Z,96328.00
2022-11-29T08:00:23.420Z,96334.94
2022-11-29T08:02:52.253Z,96333.91
2022-11-29T08:05:20.263Z,96333.75
2022-11-29T08:07:48.501Z,96345.91
2022-11-29T08:10:18.333Z,96333.66
2022-11-29T08:12:47.681Z,96336.41
2022-11-29T08:15:17.669Z,96339.97
2022-11-29T08:17:46.102Z,96323.31
2022-11-29T08:20:16.444Z,96343.28
2022-11-29T08:22:44.671Z,96342.47
2022-11-29T08:25:13.706Z,96342.34
2022-11-29T08:27:41.447Z,96343.81
2022-11-29T08:30:10.298Z,96355.31
2022-11-29T08:32:39.429Z,96354.25
2022-11-29T08:35:07.447Z,96352.34
2022-11-29T08:37:35.230Z,96351.63
2022-11-29T08:40:04.587Z,96348.72
2022-11-29T08:42:32.410Z,96348.34
2022-11-29T08:45:00.112Z,96354.91
2022-11-29T08:47:41.049Z,96355.50
2022-11-29T08:50:14.526Z,96348.72
2022-11-29T08:53:01.771Z,96363.09
2022-11-29T08:55:33.170Z,96351.38
2022-11-29T08:58:06.517Z,96354.94
2022-11-29T09:00:35.352Z,96353.69
2022-11-29T09:03:22.217Z,96354.19
2022-11-29T09:05:51.676Z,96361.16
2022-11-29T09:08:19.953Z,96363.63
2022-11-29T09:10:49.490Z,96367.41
2022-11-29T09:13:18.150Z,96373.50
2022-11-29T09:15:45.883Z,96365.66
2022-11-29T09:18:13.684Z,96371.78
2022-11-29T09:20:44.768Z,96363.78
2022-11-29T09:23:14.361Z,96365.97
2022-11-29T09:25:42.304Z,96373.69
2022-11-29T09:28:11.483Z,96375.75
2022-11-29T09:30:39.182Z,96375.31
2022-11-29T09:33:06.955Z,96370.31
2022-11-29T09:35:35.342Z,96377.53
2022-11-29T09:38:30.462Z,96372.09
2022-11-29T09:41:04.596Z,96383.97
2022-11-29T09:43:45.283Z,96386.13
2022-11-29T09:46:22.968Z,96386.31
2022-11-29T09:49:04.779Z,96386.63
2022-11-29T09:51:44.389Z,96388.78
2022-11-29T09:54:30.184Z,96379.75
2022-11-29T09:56:58.225Z,96385.47
2022-11-29T09:59:29.793Z,96380.22
2022-11-29T10:02:01.417Z,96377.47
2022-11-29T10:04:32.030Z,96371.84
2022-11-29T10:07:03.974Z,96379.72
2022-11-29T10:09:38.262Z,96356.91
2022-11-29T10:12:13.975Z,96386.03
2022-11-29T10:14:48.352Z,96378.38
2022-11-29T10:17:29.478Z,96383.69
2022-11-29T10:20:03.587Z,96386.16
2022-11-29T10:22:40.825Z,96377.63
2022-11-29T10:25:18.050Z,96387.38
2022-11-29T10:27:45.895Z,96383.06
2022-11-29T10:30:16.215Z,96381.44
2022-11-29T10:32:46.762Z,96361.44
2022-11-29T10:35:18.180Z,96375.66
2022-11-29T10:38:07.628Z,96373.59
2022-11-29T10:40:38.965Z,96348.69
2022-11-29T10:43:06.792Z,96372.31
2022-11-29T10:45:39.030Z,96366.72
2022-11-29T10:48:12.645Z,96373.34
2022-11-29T10:50:43.960Z,96344.53
2022-11-29T10:53:15.000Z,96370.00
2022-11-29T10:55:49.964Z,96381.72
2022-11-29T10:58:26.288Z,96373.78
2022-11-29T11:00:57.782Z,96367.16
2022-11-29T11:03:29.943Z,96358.13
2022-11-29T11:05:58.823Z,96368.34
2022-11-29T11:08:27.356Z,96363.94
2022-11-29T11:11:01.698Z,96379.81
2022-11-29T11:13:32.389Z,96369.34
2022-11-29T11:16:09.785Z,96362.97
2022-11-29T11:18:38.732Z,96368.78
2022-11-29T11:21:10.282Z,96371.25
2022-11-29T11:23:43.439Z,96376.78
2022-11-29T11:26:15.032Z,96370.97
2022-11-29T11:28:50.964Z,96373.38
2022-11-29T11:31:28.893Z,96375.41
2022-11-29T11:33:57.172Z,96360.56
2022-11-29T11:36:27.579Z,96372.81
2022-11-29T11:38:57.086Z,96369.03
2022-11-29T11:41:52.160Z,96380.03
2022-11-29T11:44:48.682Z,96369.59
2022-11-29T11:47:19.350Z,96371.50
2022-11-29T11:49:49.669Z,96372.03
2022-11-29T11:52:22.841Z,96374.47
2022-11-29T11:54:55.096Z,96369.66
2022-11-29T11:57:26.303Z,96378.28
2022-11-29T12:00:05.023Z,96372.56
2022-11-29T12:02:39.989Z,96377.72
2022-11-29T12:05:14.902Z,96376.13
2022-11-29T12:10:39.772Z,96380.69
2022-11-29T12:13:18.473Z,96372.16
2022-11-29T12:15:49.713Z,96385.38
2022-11-29T12:18:25.554Z,96384.47
2022-11-29T12:20:58.406Z,96369.34
2022-11-29T12:23:36.608Z,96386.03
2022-11-29T12:26:13.662Z,96376.44
2022-11-29T12:28:48.640Z,96384.16
2022-11-29T12:31:31.444Z,96386.00
2022-11-29T12:34:06.245Z,96384.66
2022-11-29T12:36:44.014Z,96383.75
2022-11-29T12:39:38.540Z,96385.50
2022-11-29T12:42:14.910Z,96386.28
2022-11-29T12:44:54.438Z,96382.88
2022-11-29T12:47:37.713Z,96393.88
2022-11-29T12:50:19.893Z,96396.75
2022-11-29T12:52:57.490Z,96398.63
2022-11-29T12:55:31.299Z,96394.34
2022-11-29T12:58:07.809Z,96393.25
2022-11-29T13:00:45.607Z,96391.69
2022-11-29T13:03:26.238Z,96395.69
2022-11-29T13:06:04.777Z,96385.72
2022-11-29T13:09:08.832Z,96391.75
2022-11-29T13:11:39.278Z,96393.91
2022-11-29T13:14:41.680Z,96401.97
2022-11-29T13:17:04.950Z,96392.31
2022-11-29T13:19:41.051Z,96398.28
2022-11-29T13:22:16.727Z,96400.22
2022-11-29T13:24:48.601Z,96404.19
2022-11-29T13:27:21.003Z,96395.66
2022-11-29T13:29:50.103Z,96404.16
2022-11-29T13:32:37.318Z,96394.72
2022-11-29T13:35:12.931Z,96403.09
2022-11-29T13:37:53.532Z,96402.03
2022-11-29T13:40:32.369Z,96401.28
2022-11-29T13:43:05.850Z,96382.25
2022-11-29T13:45:41.130Z,96397.75
2022-11-29T13:48:34.036Z,96406.06
2022-11-29T13:51:26.870Z,96403.50
2022-11-29T13:53:56.202Z,96405.50
2022-11-29T13:56:32.652Z,96407.31
2022-11-29T13:59:01.747Z,96402.69
2022-11-29T14:01:29.850Z,96411.94
2022-11-29T14:04:07.069Z,96412.78
2022-11-29T14:06:37.238Z,96419.16
2022-11-29T14:09:29.204Z,96411.16
2022-11-29T14:12:05.045Z,96410.69
2022-11-29T14:14:38.753Z,96409.44
2022-11-29T14:17:14.201Z,96411.06
2022-11-29T14:19:43.309Z,96414.31
2022-11-29T14:22:23.237Z,96413.88
2022-11-29T14:25:49.283Z,96416.56
2022-11-29T14:28:30.327Z,96417.34
2022-11-29T14:31:01.330Z,96417.94
2022-11-29T14:33:45.230Z,96419.88
2022-11-29T14:36:40.892Z,96426.81
2022-11-29T14:39:27.201Z,96423.72
2022-11-29T14:42:04.641Z,96429.03
2022-11-29T14:44:34.227Z,96428.56
2022-11-29T14:47:05.482Z,96431.59
2022-11-29T14:49:40.781Z,96429.63
2022-11-29T14:52:23.214Z,96435.75
2022-11-29T14:54:58.482Z,96429.41
2022-11-29T14:58:15.017Z,96434.75
2022-11-29T15:00:56.631Z,96436.91
2022-11-29T15:03:32.900Z,96437.84
2022-11-29T15:06:08.429Z,96444.22
2022-11-29T15:08:43.067Z,96441.88
2022-11-29T15:11:18.856Z,96451.75
2022-11-29T15:13:56.193Z,96452.69
2022-11-29T15:16:40.724Z,96458.88
2022-11-29T15:19:31.492Z,96452.34
2022-11-29T15:22:09.671Z,96462.81
2022-11-29T15:24:56.013Z,96437.19
2022-11-29T15:27:24.743Z,96466.41
2022-11-29T15:29:52.845Z,96457.00
2022-11-29T15:32:27.096Z,96465.16
2022-11-29T15:34:56.620Z,96463.38
2022-11-29T15:37:39.093Z,96468.75
2022-11-29T15:40:13.763Z,96475.41
2022-11-29T15:42:44.271Z,96475.50
2022-11-29T15:45:32.922Z,96476.25
2022-11-29T15:48:29.113Z,96464.50
2022-11-29T15:51:03.932Z,96480.41
2022-11-29T15:53:36.582Z,96486.53
2022-11-29T15:56:14.433Z,96487.38
2022-11-29T15:58:43.188Z,96490.03
2022-11-29T16:01:19.864Z,96481.28
2022-11-29T16:03:49.745Z,96499.47
2022-11-29T16:06:26.542Z,96495.19
2022-11-29T16:08:55.336Z,96496.88
2022-11-29T16:11:27.778Z,96498.50
2022-11-29T16:14:19.153Z,96495.50
2022-11-29T16:16:49.221Z,96468.94
2022-11-29T16:19:26.374Z,96502.59
2022-11-29T16:22:02.713Z,96503.81
2022-11-29T16:24:31.600Z,96506.72
2022-11-29T16:27:02.795Z,96502.38
2022-11-29T16:29:32.648Z,96507.88
2022-11-29T16:32:00.691Z,96510.94
2022-11-29T16:34:32.928Z,96512.41
2022-11-29T16:37:06.538Z,96513.84
2022-11-29T16:39:36.279Z,96515.31
2022-11-29T16:42:14.609Z,96511.84
2022-11-29T16:45:28.218Z,96519.56
2022-11-29T16:47:58.757Z,96518.34
2022-11-29T16:50:27.826Z,96516.50
2022-11-29T16:52:56.978Z,96522.84
2022-11-29T16:55:25.439Z,96522.22
2022-11-29T16:57:54.515Z,96519.81
2022-11-29T17:00:30.797Z,96521.81
2022-11-29T17:02:58.959Z,96509.59
2022-11-29T17:05:26.959Z,96521.44
2022-11-29T17:07:54.949Z,96523.06
2022-11-29T17:10:25.695Z,96529.63
2022-11-29T17:12:54.823Z,96534.94
2022-11-29T17:15:22.580Z,96527.97
2022-11-29T17:17:50.359Z,96518.63
2022-11-29T17:20:18.180Z,96529.63
2022-11-29T17:22:45.876Z,96532.31
2022-11-29T17:25:13.820Z,96536.19
2022-11-29T17:27:41.616Z,96534.34
2022-11-29T17:30:12.298Z,96530.03
2022-11-29T17:32:40.166Z,96539.03
2022-11-29T17:35:08.533Z,96529.66
2022-11-29T17:37:36.329Z,96539.03
2022-11-29T17:40:04.520Z,96546.00
2022-11-29T17:42:32.342Z,96548.00
2022-11-29T17:45:00.074Z,96539.66
2022-11-29T17:47:29.192Z,96547.84
2022-11-29T17:49:58.035Z,96553.97
2022-11-29T17:52:25.855Z,96546.19
2022-11-29T17:54:53.657Z,96552.72
2022-11-29T17:57:21.414Z,96553.31
2022-11-29T17:59:49.219Z,96546.59
2022-11-29T18:02:16.951Z,96555.78
2022-11-29T18:04:46.214Z,96554.97
2022-11-29T18:07:17.093Z,96552.53
2022-11-29T18:09:46.454Z,96561.09
2022-11-29T18:12:14.294Z,96558.03
2022-11-29T18:14:42.007Z,96556.81
2022-11-29T18:17:09.885Z,96559.88
2022-11-29T18:19:37.687Z,96560.50
2022-11-29T18:22:06.891Z,96557.03
2022-11-29T18:24:34.612Z,96557.03
2022-11-29T18:27:02.359Z,96555.81
2022-11-29T18:29:34.256Z,96561.94
2022-11-29T18:32:06.254Z,96568.91
2022-11-29T18:34:33.941Z,96559.50
2022-11-29T18:37:01.689Z,96564.81
2022-11-29T18:39:30.734Z,96566.03
2022-11-29T18:41:58.588Z,96568.50
2022-11-29T18:44:29.460Z,96574.00
2022-11-29T18:46:57.763Z,96577.66
2022-11-29T18:49:25.532Z,96569.69
2022-11-29T18:51:53.363Z,96578.91
2022-11-29T18:54:21.096Z,96582.78
2022-11-29T18:56:51.456Z,96575.22
2022-11-29T18:59:19.197Z,96575.84
2022-11-29T19:01:48.690Z,96582.78
2022-11-29T19:04:18.567Z,96586.03
2022-11-29T19:06:46.780Z,96584.00
2022-11-29T19:09:16.241Z,96589.31
2022-11-29T19:11:45.081Z,96562.34
2022-11-29T19:14:14.283Z,96588.69
2022-11-29T19:16:43.870Z,96590.13
2022-11-29T19:19:11.959Z,96585.22
2022-11-29T19:21:40.765Z,96562.75
2022-11-29T19:24:13.903Z,96586.41
2022-11-29T19:26:44.215Z,96586.41
2022-11-29T19:29:12.717Z,96579.28
2022-11-29T19:31:42.511Z,96574.59
2022-11-29T19:34:10.413Z,96590.53
2022-11-29T19:36:42.588Z,96591.38
2022-11-29T19:39:12.152Z,96587.28
2022-11-29T19:41:40.011Z,96588.91
2022-11-29T19:44:09.435Z,96586.03
2022-11-29T19:46:39.823Z,96572.78
2022-11-29T19:49:09.918Z,96585.63
2022-11-29T19:51:37.967Z,96584.84
2022-11-29T19:54:07.308Z,96586.88
2022-11-29T19:56:35.166Z,96589.72
2022-11-29T19:59:02.894Z,96579.09
2022-11-29T20:01:39.675Z,96584.03
2022-11-29T20:04:11.330Z,96584.81
2022-11-29T20:06:39.357Z,96579.09
2022-11-29T20:09:07.490Z,96585.25
2022-11-29T20:11:35.603Z,96584.44
2022-11-29T20:14:04.766Z,96596.28
2022-11-29T20:16:33.079Z,96573.38
2022-11-29T20:19:01.696Z,96599.13
2022-11-29T20:21:32.710Z,96599.13
2022-11-29T20:24:02.858Z,96599.97
2022-11-29T20:26:31.906Z,96599.13
2022-11-29T20:29:00.148Z,96604.44
2022-11-29T20:31:27.999Z,96602.81
2022-11-29T20:33:57.283Z,96594.41
2022-11-29T20:36:48.848Z,96606.06
2022-11-29T20:39:29.840Z,96608.53
2022-11-29T20:42:33.109Z,96608.72
2022-11-29T20:45:02.619Z,96613.03
2022-11-29T20:47:41.378Z,96615.09
2022-11-29T20:50:14.506Z,96619.97
2022-11-29T20:52:52.624Z,96583.41
2022-11-29T20:55:20.753Z,96619.75
2022-11-29T20:57:49.808Z,96613.44
2022-11-29T21:00:18.307Z,96612.81
2022-11-29T21:02:46.124Z,96464.97
2022-11-29T21:05:13.876Z,96613.44
2022-11-29T21:07:43.973Z,96614.66
2022-11-29T21:10:12.440Z,96621.19
2022-11-29T21:12:40.709Z,96620.38
2022-11-29T21:15:10.433Z,96604.81
2022-11-29T21:17:38.707Z,96606.06
2022-11-29T21:20:08.086Z,96617.13
2022-11-29T21:22:44.027Z,96616.69
2022-11-29T21:25:20.822Z,96577.47
2022-11-29T21:27:49.207Z,96620.38
2022-11-29T21:30:19.902Z,96621.41
2022-11-29T21:32:48.609Z,96588.31
2022-11-29T21:35:17.158Z,96586.84
2022-11-29T21:37:46.133Z,96609.94
2022-11-29T21:40:16.020Z,96594.22
2022-11-29T21:42:43.789Z,96611.16
2022-11-29T21:45:15.511Z,96606.06
2022-11-29T21:47:44.051Z,96619.97
2022-11-29T21:50:12.916Z,96597.09
2022-11-29T21:52:41.099Z,96618.75
2022-11-29T21:55:09.734Z,96619.56
2022-11-29T21:57:38.979Z,96623.25
2022-11-29T22:00:08.101Z,96622.66
2022-11-29T22:02:35.975Z,96617.53
2022-11-29T22:05:03.801Z,96613.44
2022-11-29T22:07:31.565Z,96618.34
2022-11-29T22:09:59.336Z,96616.50
2022-11-29T22:12:34.113Z,96619.59
2022-11-29T22:15:04.465Z,96622.84
2022-11-29T22:17:32.200Z,96624.91
2022-11-29T22:19:59.959Z,96621.19
2022-11-29T22:22:28.385Z,96612.63
2022-11-29T22:24:56.274Z,96629.19
2022-11-29T22:27:24.026Z,96622.41
2022-11-29T22:29:51.820Z,96624.47
2022-11-29T22:32:20.926Z,96623.66
2022-11-29T22:34:48.889Z,96613.84
2022-11-29T22:37:16.814Z,96622.63
2022-11-29T22:39:44.647Z,96611.38
2022-11-29T22:42:12.337Z,96620.59
2022-11-29T22:44:40.067Z,96618.75
2022-11-29T22:47:07.811Z,96623.25
2022-11-29T22:49:36.934Z,96629.38
2022-11-29T22:52:04.776Z,96621.00
2022-11-29T22:54:32.674Z,96624.69
2022-11-29T22:57:00.398Z,96621.22
2022-11-29T22:59:28.105Z,96626.31
2022-11-29T23:01:55.877Z,96616.31
2022-11-29T23:04:23.586Z,96575.81
2022-11-29T23:06:52.670Z,96619.56
2022-11-29T23:09:22.348Z,96620.81
2022-11-29T23:11:52.152Z,96620.81
2022-11-29T23:14:20.255Z,96620.38
2022-11-29T23:16:48.075Z,96619.38
2022-11-29T23:19:16.141Z,96610.56
2022-11-29T23:21:45.826Z,96620.38
2022-11-29T23:24:16.133Z,96617.94
2022-11-29T23:26:45.991Z,96617.09
2022-11-29T23:29:15.934Z,96619.53
2022-11-29T23:31:44.347Z,96621.59
2022-11-29T23:34:12.932Z,96624.25
2022-11-29T23:36:40.901Z,96622.81
2022-11-29T23:39:09.007Z,96618.34
2022-11-29T23:41:38.278Z,96617.13
2022-11-29T23:44:06.415Z,96623.84
2022-11-29T23:46:35.782Z,96623.81
2022-11-29T23:49:03.578Z,96620.59
2022-11-29T23:51:31.331Z,96615.28
2022-11-29T23:53:59.077Z,96610.16
2022-11-29T23:56:26.760Z,96610.56
2022-11-29T23:58:55.865Z,96612.19
